Terminal Aerodrome Forecast
Issued by NWS Amarillo, TX

Home | Current Version | Previous Version | Text Only | Print | Product List | Glossary On
Versions: 1 2 3 4 5 6 7 8 9 10 11 12 13 14 15
000
FTUS44 KAMA 240532
TAFGUY
TAF
KGUY 240532Z 2406/2506 20014KT P6SM SCT120 BKN300
     FM241200 31011KT P6SM SCT120 BKN300
     FM241900 18011KT P6SM SCT060 BKN300 PROB30 2422/2504 5SM TSRA
      BKN040CB=

USA.gov is the U.S. government's official web portal to all federal, state and local government web resources and services.